Time;durP1;ratioP1;P1;durP2;ratioP2;P2;SDS_P1;SDS_P2;PMS_P1;PMS_P2;Temp;Humidity;BMP_temperature;BMP_pressure;BME280_temperature;BME280_humidity;BME280_pressure;Samples;Min_cycle;Max_cycle;Signal;HPM_P1;HPM_P2
2023/12/21 00:03:02;;;;;;;3.15;2.08;;;17.60;42.10;;;;;;8365026;28;20039;-54
2023/12/21 00:07:03;;;;;;;4.18;2.13;;;17.70;42.30;;;;;;8364921;28;20129;-54
2023/12/21 00:11:05;;;;;;;2.58;2.08;;;17.60;42.60;;;;;;8364718;28;20029;-52
2023/12/21 00:15:06;;;;;;;5.63;2.22;;;17.60;42.60;;;;;;8364524;28;20033;-53
2023/12/21 00:19:07;;;;;;;3.17;1.70;;;17.70;42.70;;;;;;8364873;28;20029;-52
2023/12/21 00:23:07;;;;;;;3.05;1.85;;;17.70;42.70;;;;;;8364438;28;20075;-54
2023/12/21 00:27:08;;;;;;;2.78;1.80;;;17.70;42.80;;;;;;8364407;28;20037;-53
2023/12/21 00:31:09;;;;;;;3.28;1.73;;;17.70;42.80;;;;;;8364282;28;20064;-53
2023/12/21 00:35:10;;;;;;;3.60;1.95;;;17.70;42.80;;;;;;8363864;28;20506;-53
2023/12/21 00:39:11;;;;;;;2.58;1.75;;;17.70;42.90;;;;;;8363609;28;20451;-52
2023/12/21 00:43:11;;;;;;;3.35;1.70;;;17.80;43.00;;;;;;8364003;28;20044;-53
2023/12/21 00:47:12;;;;;;;3.22;1.63;;;17.80;43.10;;;;;;8363482;28;20059;-54
2023/12/21 00:51:13;;;;;;;1.90;1.75;;;17.80;43.10;;;;;;8362638;28;20116;-53
2023/12/21 00:55:14;;;;;;;4.10;2.00;;;17.80;43.20;;;;;;8363339;28;20091;-50
2023/12/21 00:59:15;;;;;;;3.47;2.05;;;17.80;43.20;;;;;;8362956;28;20248;-51
2023/12/21 01:03:16;;;;;;;3.03;2.08;;;17.90;43.30;;;;;;8363294;28;20516;-51
2023/12/21 01:07:17;;;;;;;3.28;1.70;;;17.90;43.30;;;;;;8363003;28;20481;-53
2023/12/21 01:11:18;;;;;;;2.05;1.52;;;17.80;43.60;;;;;;8362825;28;20033;-52
2023/12/21 01:15:18;;;;;;;3.38;1.55;;;17.80;43.60;;;;;;8362870;28;20041;-53
2023/12/21 01:19:19;;;;;;;3.60;1.70;;;17.80;43.60;;;;;;8362445;28;20037;-52
2023/12/21 01:23:20;;;;;;;2.30;1.33;;;17.90;43.60;;;;;;8362617;28;20072;-52
2023/12/21 01:27:21;;;;;;;2.10;1.50;;;17.90;43.70;;;;;;8362672;28;20374;-54
2023/12/21 01:31:22;;;;;;;2.88;1.77;;;18.00;43.80;;;;;;8362159;28;20040;-53
2023/12/21 01:35:22;;;;;;;2.58;1.38;;;17.90;43.70;;;;;;8362240;28;20029;-53
2023/12/21 01:39:23;;;;;;;1.63;1.40;;;18.00;43.90;;;;;;8361616;28;20048;-51
2023/12/21 01:43:24;;;;;;;2.17;1.63;;;18.00;43.90;;;;;;8360603;28;20337;-52
2023/12/21 01:47:24;;;;;;;3.53;1.48;;;18.00;43.90;;;;;;8360618;28;20283;-53
2023/12/21 01:51:25;;;;;;;2.13;1.20;;;18.00;43.90;;;;;;8361587;28;20037;-51
2023/12/21 01:55:27;;;;;;;2.00;1.30;;;18.00;44.00;;;;;;8362034;28;20486;-52
2023/12/21 01:59:29;;;;;;;2.15;1.33;;;18.00;44.60;;;;;;8361071;28;20029;-53
2023/12/21 02:03:30;;;;;;;2.35;1.55;;;18.00;44.10;;;;;;8361911;28;20029;-54
2023/12/21 02:07:31;;;;;;;;;;;18.00;44.20;;;;;;8361583;28;20043;-53
2023/12/21 02:11:31;;;;;;;3.17;1.57;;;17.90;44.40;;;;;;8361492;28;19915;-51
2023/12/21 02:15:32;;;;;;;2.50;1.73;;;18.00;44.40;;;;;;8359651;28;20036;-53
2023/12/21 02:19:33;;;;;;;1.75;1.30;;;18.00;44.40;;;;;;8360799;28;20082;-53
2023/12/21 02:23:36;;;;;;;1.67;1.30;;;18.00;44.40;;;;;;8360882;28;20048;-53
2023/12/21 02:27:37;;;;;;;2.75;1.60;;;18.00;44.40;;;;;;8360866;28;20060;-53
2023/12/21 02:31:38;;;;;;;2.97;1.38;;;18.00;44.40;;;;;;8360713;28;20041;-53
2023/12/21 02:35:39;;;;;;;1.83;1.25;;;18.00;44.40;;;;;;8360564;28;20039;-53
2023/12/21 02:39:40;;;;;;;2.65;1.30;;;18.00;44.40;;;;;;8360086;28;20057;-54
2023/12/21 02:43:40;;;;;;;3.47;1.20;;;18.00;44.40;;;;;;8360353;28;20083;-54
2023/12/21 02:47:41;;;;;;;2.22;1.35;;;18.10;44.50;;;;;;8359344;28;20509;-54
2023/12/21 02:51:42;;;;;;;2.53;1.33;;;18.10;44.50;;;;;;8360259;28;20047;-54
2023/12/21 02:55:42;;;;;;;1.55;1.20;;;18.10;44.60;;;;;;8360053;28;20041;-54
2023/12/21 02:59:44;;;;;;;2.17;1.40;;;18.10;44.60;;;;;;8360232;28;20037;-53
2023/12/21 03:03:44;;;;;;;;;;;18.10;44.60;;;;;;8360582;28;20379;-52
2023/12/21 03:07:45;;;;;;;2.03;1.40;;;18.10;44.70;;;;;;8360063;28;19967;-54
2023/12/21 03:11:46;;;;;;;1.40;1.10;;;18.00;45.00;;;;;;8361009;28;20117;-54
2023/12/21 03:15:46;;;;;;;1.48;1.20;;;18.00;44.90;;;;;;8366430;28;20041;-52
2023/12/21 03:19:47;;;;;;;2.13;1.30;;;18.00;44.90;;;;;;8365244;28;20504;-51
2023/12/21 03:23:48;;;;;;;1.77;1.33;;;18.10;44.90;;;;;;8366362;28;20378;-52
2023/12/21 03:27:51;;;;;;;1.83;1.17;;;18.10;45.00;;;;;;8367371;28;20540;-53
2023/12/21 03:31:54;;;;;;;1.95;1.38;;;18.10;45.00;;;;;;8365997;28;20037;-53
2023/12/21 03:35:54;;;;;;;1.40;1.00;;;18.10;45.00;;;;;;8364663;28;20116;-51
2023/12/21 03:39:58;;;;;;;1.38;1.27;;;18.10;45.00;;;;;;8365476;28;20517;-51
2023/12/21 03:43:59;;;;;;;1.10;1.00;;;18.10;45.00;;;;;;8365618;28;20021;-54
2023/12/21 03:48:00;;;;;;;1.20;1.00;;;18.10;45.00;;;;;;8365766;28;20037;-54
2023/12/21 03:52:00;;;;;;;1.25;1.15;;;18.10;45.00;;;;;;8365332;28;20091;-53
2023/12/21 03:56:01;;;;;;;0.80;0.80;;;18.10;45.00;;;;;;8365327;28;20052;-51
2023/12/21 04:00:02;;;;;;;1.02;0.93;;;18.10;45.10;;;;;;8365133;28;20025;-53
2023/12/21 04:04:03;;;;;;;1.40;1.20;;;18.10;45.00;;;;;;8363811;28;20092;-53
2023/12/21 04:08:05;;;;;;;1.10;0.95;;;18.10;45.20;;;;;;8364961;28;20495;-53
2023/12/21 04:12:06;;;;;;;1.13;0.90;;;18.10;45.50;;;;;;8364789;28;20036;-53
2023/12/21 04:16:08;;;;;;;1.58;1.00;;;18.10;45.50;;;;;;8364515;28;20479;-53
2023/12/21 04:20:10;;;;;;;0.95;0.85;;;18.10;45.40;;;;;;8364697;28;20029;-53
2023/12/21 04:24:11;;;;;;;1.25;0.95;;;18.10;45.30;;;;;;8364268;28;20107;-51
2023/12/21 04:28:11;;;;;;;1.17;1.05;;;18.10;45.30;;;;;;8364656;28;20048;-53
2023/12/21 04:32:12;;;;;;;1.10;1.00;;;18.10;45.40;;;;;;8364274;28;20087;-54
2023/12/21 04:36:13;;;;;;;1.23;0.90;;;18.10;45.50;;;;;;8363832;28;20443;-54
2023/12/21 04:40:14;;;;;;;;;;;18.10;45.40;;;;;;8364082;28;20159;-54
2023/12/21 04:44:15;;;;;;;1.20;1.00;;;18.10;45.40;;;;;;8364424;28;19985;-50
2023/12/21 04:48:16;;;;;;;0.93;0.93;;;18.10;45.40;;;;;;8363875;28;20495;-52
2023/12/21 04:52:17;;;;;;;1.55;0.85;;;18.10;45.40;;;;;;8363576;28;20037;-50
2023/12/21 04:56:18;;;;;;;1.20;1.08;;;18.10;45.50;;;;;;8363362;28;20398;-53
2023/12/21 05:00:18;;;;;;;1.30;1.00;;;18.10;45.50;;;;;;8363317;28;20533;-52
2023/12/21 05:04:19;;;;;;;0.80;0.80;;;18.10;45.50;;;;;;8363151;28;20083;-53
2023/12/21 05:08:20;;;;;;;0.98;0.82;;;18.10;45.60;;;;;;8363244;28;20033;-52
2023/12/21 05:12:20;;;;;;;1.13;0.88;;;18.10;45.80;;;;;;8362870;28;20505;-52
2023/12/21 05:16:21;;;;;;;1.08;0.90;;;18.10;45.70;;;;;;8362711;28;20041;-52
2023/12/21 05:20:22;;;;;;;1.10;0.80;;;18.10;45.60;;;;;;8362686;28;20021;-52
2023/12/21 05:24:22;;;;;;;1.48;0.95;;;18.20;45.70;;;;;;8362461;28;20033;-54
2023/12/21 05:28:23;;;;;;;1.08;0.98;;;18.20;45.60;;;;;;8362788;28;20674;-54
2023/12/21 05:32:24;;;;;;;0.75;0.70;;;18.30;45.40;;;;;;8362394;28;20390;-48
2023/12/21 05:36:24;;;;;;;1.10;1.00;;;18.30;45.30;;;;;;8361659;28;20037;-50
2023/12/21 05:40:25;;;;;;;0.70;0.70;;;18.40;45.20;;;;;;8361794;28;20106;-49
2023/12/21 05:44:26;;;;;;;1.65;1.00;;;18.40;45.20;;;;;;8361829;28;20033;-48
2023/12/21 05:48:27;;;;;;;0.63;0.63;;;18.40;45.20;;;;;;8362092;28;20444;-48
2023/12/21 05:52:27;;;;;;;0.93;0.77;;;18.50;45.10;;;;;;8361742;28;20034;-50
2023/12/21 05:56:28;;;;;;;0.82;0.73;;;18.50;45.10;;;;;;8361238;28;20037;-49
2023/12/21 06:00:29;;;;;;;0.80;0.80;;;18.50;45.10;;;;;;8361542;28;20068;-51
2023/12/21 06:04:30;;;;;;;1.65;1.33;;;18.50;45.10;;;;;;8361264;28;20033;-49
2023/12/21 06:08:31;;;;;;;0.93;0.70;;;18.50;45.20;;;;;;8360118;28;20037;-48
2023/12/21 06:12:32;;;;;;;1.27;0.93;;;18.50;45.50;;;;;;8361196;28;20021;-48
2023/12/21 06:16:33;;;;;;;1.05;0.80;;;18.50;45.40;;;;;;8360888;28;20037;-48
2023/12/21 06:20:35;;;;;;;1.02;0.70;;;18.50;45.30;;;;;;8360927;28;20051;-48
2023/12/21 06:24:36;;;;;;;1.55;0.85;;;18.50;45.30;;;;;;8360754;28;20063;-50
2023/12/21 06:28:37;;;;;;;0.75;0.60;;;18.50;45.30;;;;;;8361103;28;20033;-48
2023/12/21 06:32:39;;;;;;;;;;;18.50;45.20;;;;;;8361137;28;20124;-52
2023/12/21 06:36:40;;;;;;;0.60;0.60;;;18.50;45.30;;;;;;8360501;28;19967;-49
2023/12/21 06:40:41;;;;;;;0.60;0.60;;;18.50;45.30;;;;;;8360330;28;20129;-52
2023/12/21 06:44:42;;;;;;;0.60;0.60;;;18.50;45.30;;;;;;8360512;28;20091;-53
2023/12/21 06:48:43;;;;;;;0.73;0.70;;;18.50;45.30;;;;;;8359758;28;20789;-53
2023/12/21 06:52:43;;;;;;;1.30;0.70;;;18.60;45.30;;;;;;8360468;28;20032;-52
2023/12/21 06:56:44;;;;;;;0.93;0.82;;;18.60;45.30;;;;;;8360145;28;20037;-53
2023/12/21 07:00:45;;;;;;;0.80;0.80;;;18.60;45.30;;;;;;8360184;28;20095;-52
2023/12/21 07:04:46;;;;;;;0.70;0.65;;;18.60;45.30;;;;;;8358980;28;20033;-53
2023/12/21 07:08:47;;;;;;;0.90;0.82;;;18.60;45.40;;;;;;8360125;28;20057;-53
2023/12/21 07:12:48;;;;;;;0.90;0.70;;;18.50;45.60;;;;;;8360024;28;20087;-51
2023/12/21 07:16:49;;;;;;;0.85;0.75;;;18.50;45.60;;;;;;8359967;28;20116;-51
2023/12/21 07:20:49;;;;;;;1.00;0.80;;;18.60;45.50;;;;;;8359785;28;20029;-54
2023/12/21 07:24:50;;;;;;;0.65;0.60;;;18.60;45.50;;;;;;8359836;28;20055;-54
2023/12/21 07:28:51;;;;;;;1.10;0.80;;;18.60;45.50;;;;;;8360138;28;20396;-51
2023/12/21 07:32:51;;;;;;;0.60;0.60;;;18.60;45.50;;;;;;8359747;28;20043;-53
2023/12/21 07:36:52;;;;;;;0.57;0.50;;;18.60;45.50;;;;;;8358491;28;20041;-51
2023/12/21 07:40:53;;;;;;;0.82;0.65;;;18.60;45.50;;;;;;8359577;28;20052;-53
2023/12/21 07:44:53;;;;;;;0.60;0.60;;;18.60;45.50;;;;;;8359468;28;20117;-53
2023/12/21 07:48:54;;;;;;;0.57;0.57;;;18.60;45.50;;;;;;8359689;28;20067;-54
2023/12/21 07:52:56;;;;;;;0.88;0.80;;;18.60;45.50;;;;;;8358311;28;20037;-54
2023/12/21 07:56:56;;;;;;;0.50;0.50;;;18.60;45.50;;;;;;8359087;28;20040;-53
2023/12/21 08:00:57;;;;;;;0.77;0.75;;;18.60;45.50;;;;;;8364922;28;20033;-54
2023/12/21 08:04:58;;;;;;;0.57;0.57;;;18.60;45.50;;;;;;8365760;28;20025;-53
2023/12/21 08:08:59;;;;;;;0.70;0.70;;;18.60;45.60;;;;;;8364908;28;20108;-54
2023/12/21 08:13:00;;;;;;;0.80;0.45;;;18.60;45.90;;;;;;8365041;28;20037;-54
2023/12/21 08:17:03;;;;;;;0.50;0.50;;;18.60;45.80;;;;;;8364512;28;20116;-52
2023/12/21 08:21:03;;;;;;;0.60;0.55;;;18.60;45.70;;;;;;8364503;28;20032;-53
2023/12/21 08:25:04;;;;;;;0.63;0.60;;;18.60;45.60;;;;;;8364606;28;20506;-53
2023/12/21 08:29:05;;;;;;;1.05;0.60;;;18.60;45.60;;;;;;8364530;28;20516;-53
2023/12/21 08:33:05;;;;;;;0.40;0.40;;;18.60;45.60;;;;;;8364473;28;20040;-53
2023/12/21 08:37:06;;;;;;;0.70;0.70;;;18.60;45.60;;;;;;8363869;28;20049;-53
2023/12/21 08:41:07;;;;;;;0.40;0.40;;;18.60;45.60;;;;;;8363925;28;20028;-51
2023/12/21 08:45:09;;;;;;;0.70;0.68;;;18.70;45.60;;;;;;8364050;28;20040;-52
2023/12/21 08:49:15;;;;;;;0.65;0.57;;;18.70;45.60;;;;;;8363807;28;20065;-53
2023/12/21 08:53:15;;;;;;;0.60;0.60;;;18.70;45.70;;;;;;8364668;28;20025;-53
2023/12/21 08:57:21;;;;;;;0.57;0.57;;;18.70;45.60;;;;;;8363456;28;20029;-53
2023/12/21 09:01:22;;;;;;;0.50;0.50;;;18.70;45.70;;;;;;8363474;28;20440;-51
2023/12/21 09:05:23;;;;;;;0.60;0.60;;;18.70;45.70;;;;;;8363248;28;20029;-49
2023/12/21 09:09:24;;;;;;;0.77;0.55;;;18.60;45.90;;;;;;8362344;28;20082;-48
2023/12/21 09:13:25;;;;;;;0.50;0.50;;;18.60;46.00;;;;;;8363080;28;20037;-48
2023/12/21 09:17:25;;;;;;;0.80;0.52;;;18.60;46.00;;;;;;8362861;28;20037;-49
2023/12/21 09:21:27;;;;;;;0.65;0.65;;;18.60;45.90;;;;;;8362797;28;20459;-50
2023/12/21 09:25:27;;;;;;;0.50;0.50;;;18.70;45.90;;;;;;8362511;28;20045;-49
2023/12/21 09:29:29;;;;;;;0.63;0.55;;;18.70;45.80;;;;;;8362375;28;20037;-48
2023/12/21 09:33:33;;;;;;;0.50;0.47;;;18.70;45.80;;;;;;8362484;28;20039;-49
2023/12/21 09:37:35;;;;;;;0.70;0.40;;;18.70;45.80;;;;;;8361817;28;20383;-48
2023/12/21 09:41:36;;;;;;;0.60;0.45;;;18.70;45.80;;;;;;8360732;28;20068;-48
2023/12/21 09:45:38;;;;;;;0.57;0.50;;;18.70;45.80;;;;;;8361980;28;20037;-48
2023/12/21 09:49:39;;;;;;;0.63;0.50;;;18.70;45.80;;;;;;8362294;28;20021;-48
2023/12/21 09:53:41;;;;;;;0.60;0.50;;;18.70;45.80;;;;;;8361739;28;20106;-48
2023/12/21 09:57:42;;;;;;;0.55;0.50;;;18.70;45.80;;;;;;8361492;28;20391;-50
2023/12/21 10:01:42;;;;;;;0.40;0.40;;;18.70;45.80;;;;;;8361460;28;20441;-48
2023/12/21 10:05:43;;;;;;;0.55;0.55;;;18.70;45.90;;;;;;8361161;28;20102;-50
2023/12/21 10:09:45;;;;;;;1.85;0.52;;;18.70;46.10;;;;;;8361324;28;20478;-53
2023/12/21 10:13:47;;;;;;;0.45;0.45;;;18.60;46.20;;;;;;8361101;28;20040;-52
2023/12/21 10:17:48;;;;;;;0.75;0.50;;;18.60;46.20;;;;;;8361087;28;20040;-53
2023/12/21 10:21:49;;;;;;;0.40;0.40;;;18.60;46.10;;;;;;8360809;28;20033;-54
2023/12/21 10:25:50;;;;;;;1.58;0.50;;;18.60;46.20;;;;;;8360858;28;20036;-53
2023/12/21 10:29:53;;;;;;;0.47;0.40;;;18.60;46.10;;;;;;8359553;28;20044;-52
2023/12/21 10:33:53;;;;;;;0.50;0.50;;;18.70;46.20;;;;;;8360828;28;20041;-53
2023/12/21 10:37:54;;;;;;;0.47;0.47;;;18.60;46.10;;;;;;8360435;28;20056;-53
2023/12/21 10:41:57;;;;;;;0.38;0.38;;;18.70;46.10;;;;;;8360530;28;20037;-52
2023/12/21 10:45:57;;;;;;;0.60;0.50;;;18.70;46.10;;;;;;8360454;28;20032;-53
2023/12/21 10:49:58;;;;;;;0.40;0.40;;;18.70;46.10;;;;;;8360271;28;20033;-53
2023/12/21 10:54:00;;;;;;;0.40;0.40;;;18.70;46.10;;;;;;8360459;28;20068;-54
2023/12/21 10:58:01;;;;;;;0.95;0.40;;;18.70;46.00;;;;;;8360292;28;20036;-52
2023/12/21 11:02:03;;;;;;;0.30;0.30;;;18.70;46.10;;;;;;8360131;28;20095;-54
2023/12/21 11:06:04;;;;;;;0.40;0.40;;;18.70;46.10;;;;;;8360259;28;20039;-52
2023/12/21 11:10:07;;;;;;;0.40;0.40;;;18.60;46.90;;;;;;8360006;28;20017;-53
2023/12/21 11:14:08;;;;;;;0.43;0.43;;;18.60;46.50;;;;;;8358845;28;20036;-52
2023/12/21 11:18:13;;;;;;;0.40;0.40;;;18.60;46.40;;;;;;8360048;28;20025;-53
2023/12/21 11:22:15;;;;;;;0.55;0.47;;;18.70;46.40;;;;;;8359826;28;20075;-54
2023/12/21 11:26:21;;;;;;;0.50;0.50;;;18.70;46.30;;;;;;8358766;28;20675;-51
2023/12/21 11:30:27;;;;;;;0.30;0.30;;;18.70;46.30;;;;;;8359741;28;20385;-55
2023/12/21 11:34:37;;;;;;;0.43;0.43;;;18.70;46.20;;;;;;8363146;28;20033;-53
2023/12/21 11:38:48;;;;;;;0.85;0.55;;;18.70;46.20;;;;;;8365843;28;20044;-54
2023/12/21 11:42:54;;;;;;;0.60;0.40;;;18.70;46.30;;;;;;8366036;28;20111;-54
2023/12/21 11:46:59;;;;;;;0.40;0.40;;;18.70;46.30;;;;;;8365657;28;20068;-51
2023/12/21 11:51:04;;;;;;;0.32;0.32;;;18.70;46.30;;;;;;8365676;28;20029;-53
2023/12/21 11:55:05;;;;;;;0.90;0.40;;;18.70;46.30;;;;;;8365272;28;20029;-54
2023/12/21 11:59:09;;;;;;;0.35;0.35;;;18.70;46.30;;;;;;8365161;28;20101;-54
2023/12/21 12:03:11;;;;;;;0.30;0.30;;;18.70;46.30;;;;;;8365369;28;20087;-54
2023/12/21 12:07:13;;;;;;;0.30;0.30;;;18.70;46.30;;;;;;8365017;28;20037;-54
2023/12/21 12:11:13;;;;;;;0.50;0.50;;;18.70;46.50;;;;;;8364964;28;20033;-52
2023/12/21 12:15:14;;;;;;;0.30;0.30;;;18.70;46.40;;;;;;8364926;28;20481;-52
2023/12/21 12:19:17;;;;;;;0.40;0.40;;;18.70;46.40;;;;;;8364515;28;20032;-52
2023/12/21 12:23:18;;;;;;;0.60;0.50;;;18.70;46.40;;;;;;8364714;28;20052;-53
2023/12/21 12:27:19;;;;;;;;;;;18.70;46.40;;;;;;8363980;28;20068;-54
2023/12/21 12:31:20;;;;;;;0.40;0.40;;;18.70;46.40;;;;;;8364357;28;19935;-50
2023/12/21 12:35:20;;;;;;;0.30;0.30;;;18.70;46.40;;;;;;8364289;28;20501;-50
2023/12/21 12:39:22;;;;;;;0.63;0.40;;;18.70;46.40;;;;;;8363877;28;20416;-50
2023/12/21 12:43:24;;;;;;;0.45;0.45;;;18.70;46.30;;;;;;8363877;28;20029;-49
2023/12/21 12:47:27;;;;;;;0.22;0.22;;;18.70;46.30;;;;;;8362694;28;20041;-49
2023/12/21 12:51:27;;;;;;;0.40;0.32;;;18.70;46.30;;;;;;8363765;28;20445;-48
2023/12/21 12:55:28;;;;;;;0.50;0.40;;;18.80;46.40;;;;;;8363568;28;20115;-48
2023/12/21 12:59:35;;;;;;;0.40;0.40;;;18.70;46.30;;;;;;8363748;28;20041;-49
2023/12/21 13:03:35;;;;;;;0.40;0.40;;;18.70;46.30;;;;;;8363325;28;20029;-49
2023/12/21 13:07:39;;;;;;;0.28;0.28;;;18.80;46.40;;;;;;8363219;28;20041;-48
2023/12/21 13:11:39;;;;;;;0.55;0.30;;;18.70;46.70;;;;;;8363060;28;20112;-49
2023/12/21 13:15:40;;;;;;;0.30;0.30;;;18.70;46.70;;;;;;8362945;28;20039;-49
2023/12/21 13:19:41;;;;;;;0.38;0.38;;;18.70;46.60;;;;;;8362832;28;20033;-50
2023/12/21 13:23:42;;;;;;;0.40;0.40;;;18.70;46.60;;;;;;8362787;28;20040;-49
2023/12/21 13:27:43;;;;;;;0.32;0.30;;;18.70;46.50;;;;;;8361648;28;20033;-49
2023/12/21 13:31:45;;;;;;;0.30;0.30;;;18.70;46.50;;;;;;8362527;28;20033;-48
2023/12/21 13:35:45;;;;;;;;;;;18.70;46.40;;;;;;8361447;28;20029;-48
2023/12/21 13:39:48;;;;;;;0.30;0.30;;;18.70;46.40;;;;;;8361830;28;19952;-49
2023/12/21 13:43:49;;;;;;;0.35;0.35;;;18.70;46.40;;;;;;8362195;28;20033;-54
2023/12/21 13:47:49;;;;;;;0.50;0.40;;;18.70;46.50;;;;;;8361993;28;20509;-52
2023/12/21 13:51:50;;;;;;;0.38;0.38;;;18.70;46.30;;;;;;8361993;28;20041;-54
2023/12/21 13:55:51;;;;;;;0.30;0.30;;;18.70;46.50;;;;;;8361185;28;20025;-53
2023/12/21 13:59:52;;;;;;;;;;;18.70;46.50;;;;;;8362011;28;20036;-53
2023/12/21 14:03:55;;;;;;;0.30;0.30;;;18.70;46.40;;;;;;8361597;28;19912;-53
2023/12/21 14:07:56;;;;;;;0.22;0.22;;;18.80;46.50;;;;;;8361364;28;20033;-54
2023/12/21 14:11:57;;;;;;;0.20;0.20;;;18.70;46.80;;;;;;8361348;28;20048;-53
2023/12/21 14:15:58;;;;;;;0.30;0.30;;;18.70;46.70;;;;;;8361188;28;20025;-54
2023/12/21 14:19:59;;;;;;;0.30;0.30;;;18.70;46.70;;;;;;8359630;28;20122;-52
2023/12/21 14:23:59;;;;;;;0.40;0.40;;;18.70;46.60;;;;;;8359806;28;20041;-52
2023/12/21 14:28:00;;;;;;;0.30;0.30;;;18.70;46.60;;;;;;8361669;28;20041;-53
2023/12/21 14:32:01;;;;;;;0.30;0.30;;;18.70;46.70;;;;;;8360784;28;20486;-53
2023/12/21 14:36:03;;;;;;;0.30;0.20;;;18.70;46.60;;;;;;8360849;28;20048;-53
2023/12/21 14:40:04;;;;;;;0.30;0.30;;;18.70;46.60;;;;;;8359042;28;20057;-54
2023/12/21 14:44:05;;;;;;;0.20;0.20;;;18.70;46.60;;;;;;8360531;28;20553;-54
2023/12/21 14:48:06;;;;;;;0.30;0.30;;;18.70;46.60;;;;;;8360699;28;20174;-54
2023/12/21 14:52:07;;;;;;;0.32;0.32;;;18.70;46.70;;;;;;8360324;28;20029;-51
2023/12/21 14:56:07;;;;;;;0.30;0.30;;;18.60;46.70;;;;;;8360235;28;20525;-52
2023/12/21 15:00:09;;;;;;;0.30;0.30;;;18.60;46.80;;;;;;8360299;28;20025;-52
2023/12/21 15:04:11;;;;;;;0.30;0.30;;;18.70;46.80;;;;;;8360714;28;20029;-51
2023/12/21 15:08:11;;;;;;;;;;;18.60;46.80;;;;;;8362180;28;20160;-53
2023/12/21 15:12:12;;;;;;;0.30;0.30;;;18.60;47.10;;;;;;8365533;28;19916;-53
2023/12/21 15:16:13;;;;;;;0.30;0.30;;;18.60;47.00;;;;;;8365285;28;20025;-52
2023/12/21 15:20:19;;;;;;;0.30;0.30;;;18.60;46.80;;;;;;8366637;28;20435;-53
2023/12/21 15:24:19;;;;;;;0.25;0.25;;;18.70;46.80;;;;;;8366379;28;20082;-51
2023/12/21 15:28:20;;;;;;;0.30;0.30;;;18.70;46.80;;;;;;8366701;28;20697;-52
2023/12/21 15:32:21;;;;;;;0.32;0.32;;;18.70;46.70;;;;;;8366335;28;20064;-53
2023/12/21 15:36:22;;;;;;;0.20;0.20;;;18.70;46.70;;;;;;8366105;28;20033;-53
2023/12/21 15:40:22;;;;;;;0.30;0.30;;;18.80;46.70;;;;;;8365637;28;20053;-53
2023/12/21 15:44:24;;;;;;;0.22;0.22;;;18.80;46.70;;;;;;8365726;28;20107;-54
2023/12/21 15:48:25;;;;;;;0.40;0.35;;;18.70;46.70;;;;;;8365755;28;20063;-54
2023/12/21 15:52:25;;;;;;;0.30;0.30;;;18.70;46.70;;;;;;8365493;28;20134;-53
2023/12/21 15:56:26;;;;;;;0.35;0.30;;;18.70;46.70;;;;;;8365232;28;20116;-51
2023/12/21 16:00:27;;;;;;;0.30;0.30;;;18.70;46.70;;;;;;8365384;28;20497;-54
2023/12/21 16:04:28;;;;;;;0.40;0.40;;;18.80;46.70;;;;;;8365230;28;20025;-48
2023/12/21 16:08:28;;;;;;;0.20;0.20;;;18.70;46.70;;;;;;8365107;28;20045;-50
2023/12/21 16:12:29;;;;;;;0.20;0.20;;;18.70;47.00;;;;;;8363773;28;20110;-47
2023/12/21 16:16:30;;;;;;;0.32;0.32;;;18.70;46.90;;;;;;8346848;28;20521;-48
2023/12/21 16:20:31;;;;;;;0.30;0.30;;;18.70;46.90;;;;;;8364324;28;20407;-49
2023/12/21 16:24:31;;;;;;;0.35;0.35;;;18.70;46.80;;;;;;8363343;28;20501;-50
2023/12/21 16:28:32;;;;;;;0.32;0.32;;;18.80;46.90;;;;;;8364591;28;20033;-48
2023/12/21 16:32:33;;;;;;;0.20;0.20;;;18.70;46.70;;;;;;8364377;28;20102;-49
2023/12/21 16:36:33;;;;;;;0.28;0.28;;;18.80;46.70;;;;;;8363949;28;20475;-50
2023/12/21 16:40:34;;;;;;;0.30;0.28;;;18.70;46.80;;;;;;8358434;28;20037;-48
2023/12/21 16:44:35;;;;;;;0.20;0.20;;;18.60;47.40;;;;;;8349180;28;20506;-47
2023/12/21 16:48:35;;;;;;;0.20;0.20;;;18.50;47.40;;;;;;8358224;28;20056;-47
2023/12/21 16:52:36;;;;;;;0.43;0.38;;;18.50;47.30;;;;;;8358209;28;20491;-46
2023/12/21 16:56:37;;;;;;;0.40;0.40;;;18.40;47.00;;;;;;8358064;28;20033;-47
2023/12/21 17:00:38;;;;;;;0.57;0.55;;;18.40;46.70;;;;;;8358025;28;20115;-47
2023/12/21 17:04:38;;;;;;;1.65;0.47;;;18.30;46.60;;;;;;8357869;28;20025;-46
2023/12/21 17:08:39;;;;;;;0.40;0.32;;;17.70;46.40;;;;;;8357659;28;20786;-46
2023/12/21 17:12:40;;;;;;;0.40;0.20;;;17.20;47.50;;;;;;8357445;28;20087;-49
2023/12/21 17:16:40;;;;;;;2.58;0.55;;;17.00;47.70;;;;;;8357205;28;20033;-48
2023/12/21 17:20:41;;;;;;;0.47;0.45;;;17.00;47.90;;;;;;8357404;28;20029;-49
2023/12/21 17:24:42;;;;;;;0.32;0.32;;;17.00;47.70;;;;;;8357014;28;20025;-54
2023/12/21 17:28:43;;;;;;;0.50;0.40;;;17.00;48.10;;;;;;8355622;28;20489;-54
2023/12/21 17:32:43;;;;;;;1.87;0.43;;;17.20;47.60;;;;;;8356209;28;20035;-54
2023/12/21 17:36:44;;;;;;;0.30;0.28;;;17.50;47.20;;;;;;8356183;28;20287;-48
2023/12/21 17:40:45;;;;;;;0.22;0.20;;;17.50;47.00;;;;;;8339679;28;20479;-49
2023/12/21 17:44:46;;;;;;;1.33;0.30;;;17.50;47.30;;;;;;8339924;28;20427;-54
2023/12/21 17:48:46;;;;;;;0.23;0.23;;;17.60;47.10;;;;;;8339693;28;20067;-54
2023/12/21 17:52:49;;;;;;;4.00;0.77;;;17.60;47.30;;;;;;8339614;28;20789;-49
2023/12/21 17:56:49;;;;;;;0.68;0.25;;;17.60;47.10;;;;;;8339628;28;20284;-54
2023/12/21 18:00:50;;;;;;;0.43;0.30;;;17.60;47.00;;;;;;8337604;28;20045;-51
2023/12/21 18:04:51;;;;;;;3.75;0.63;;;17.60;47.00;;;;;;8338699;28;20028;-53
2023/12/21 18:08:52;;;;;;;6.00;0.63;;;17.60;47.40;;;;;;8337333;28;20040;-49
2023/12/21 18:12:52;;;;;;;2.80;0.30;;;17.60;47.30;;;;;;8336643;28;20040;-51
2023/12/21 18:16:53;;;;;;;3.55;0.50;;;17.60;47.20;;;;;;8330754;28;20130;-48
2023/12/21 18:20:56;;;;;;;0.40;0.38;;;17.70;47.10;;;;;;8335969;28;20040;-49
2023/12/21 18:24:57;;;;;;;1.27;0.30;;;17.60;47.00;;;;;;8335918;28;20033;-48
2023/12/21 18:28:58;;;;;;;3.92;0.40;;;17.50;47.30;;;;;;8338082;28;20025;-50
2023/12/21 18:32:59;;;;;;;6.13;0.38;;;17.60;47.30;;;;;;8337863;28;20051;-48
2023/12/21 18:37:00;;;;;;;0.50;0.32;;;17.60;47.20;;;;;;8335353;28;20044;-50
2023/12/21 18:41:00;;;;;;;5.53;0.70;;;17.60;47.10;;;;;;8335443;28;20122;-50
2023/12/21 18:45:01;;;;;;;2.58;0.90;;;17.60;47.10;;;;;;8336052;28;20034;-49
2023/12/21 18:49:03;;;;;;;2.45;0.52;;;17.60;47.10;;;;;;8335559;28;20060;-48
2023/12/21 18:53:06;;;;;;;7.22;0.70;;;17.50;47.50;;;;;;8335352;28;20546;-49
2023/12/21 18:57:07;;;;;;;5.13;0.80;;;17.50;47.70;;;;;;8336063;28;20414;-48
2023/12/21 19:01:08;;;;;;;4.30;0.57;;;17.60;47.80;;;;;;8337847;28;20292;-50
2023/12/21 19:05:09;;;;;;;0.70;0.47;;;17.80;47.60;;;;;;8337071;28;20456;-50
2023/12/21 19:09:12;;;;;;;0.38;0.30;;;17.70;48.00;;;;;;8337649;28;20040;-50
2023/12/21 19:13:12;;;;;;;1.02;0.40;;;17.50;48.20;;;;;;8337536;28;20033;-49
2023/12/21 19:17:13;;;;;;;0.85;0.50;;;17.60;48.30;;;;;;8336803;28;20041;-48
2023/12/21 19:21:14;;;;;;;0.90;0.50;;;17.60;48.50;;;;;;8337299;28;20471;-47
2023/12/21 19:25:15;;;;;;;1.80;0.30;;;17.70;48.30;;;;;;8336671;28;20037;-49
2023/12/21 19:29:17;;;;;;;4.90;1.65;;;17.80;48.20;;;;;;8337292;28;20025;-48
2023/12/21 19:33:18;;;;;;;2.55;1.20;;;17.90;48.20;;;;;;8337280;28;20112;-55
2023/12/21 19:37:21;;;;;;;1.93;0.93;;;17.90;48.30;;;;;;8335903;28;20073;-50
2023/12/21 19:41:22;;;;;;;2.47;1.00;;;17.90;48.80;;;;;;8336241;28;20648;-50
2023/12/21 19:45:22;;;;;;;1.95;0.60;;;17.90;48.40;;;;;;8336201;28;20025;-56
2023/12/21 19:49:23;;;;;;;3.20;0.70;;;18.00;48.20;;;;;;8337364;28;20037;-54
2023/12/21 19:53:24;;;;;;;2.27;0.83;;;18.00;47.90;;;;;;8336599;28;20742;-50
2023/12/21 19:57:24;;;;;;;0.87;0.57;;;17.90;47.90;;;;;;8342391;28;20299;-52
2023/12/21 20:01:25;;;;;;;1.05;0.60;;;17.90;47.80;;;;;;8342877;28;20338;-50
2023/12/21 20:05:27;;;;;;;0.80;0.60;;;17.90;47.70;;;;;;8343078;28;20040;-53
2023/12/21 20:09:28;;;;;;;2.38;0.40;;;17.70;48.00;;;;;;8342097;28;20123;-51
2023/12/21 20:13:29;;;;;;;0.90;0.53;;;17.70;48.10;;;;;;8341952;28;20033;-51
2023/12/21 20:17:30;;;;;;;1.08;0.40;;;17.80;47.90;;;;;;8341816;28;20386;-50
2023/12/21 20:21:31;;;;;;;0.60;0.40;;;18.00;48.00;;;;;;8342083;28;20044;-48
2023/12/21 20:25:32;;;;;;;3.63;0.82;;;18.00;47.60;;;;;;8341279;28;20032;-53
2023/12/21 20:29:33;;;;;;;1.45;0.43;;;18.00;47.90;;;;;;8341514;28;20048;-53
2023/12/21 20:33:34;;;;;;;2.38;0.50;;;18.00;47.80;;;;;;8341799;28;20057;-47
2023/12/21 20:37:34;;;;;;;0.40;0.40;;;17.90;47.70;;;;;;8340901;28;20045;-53
2023/12/21 20:41:35;;;;;;;0.45;0.40;;;18.00;47.60;;;;;;8341052;28;20037;-47
2023/12/21 20:45:36;;;;;;;2.80;0.40;;;18.00;47.60;;;;;;8341062;28;20136;-48
2023/12/21 20:49:40;;;;;;;0.75;0.57;;;18.00;47.50;;;;;;8340557;28;20033;-49
2023/12/21 20:53:41;;;;;;;1.30;0.47;;;18.00;47.50;;;;;;8340370;28;20116;-50
2023/12/21 20:57:43;;;;;;;1.63;0.52;;;17.90;47.40;;;;;;8339317;28;20029;-48